createdAt,value
2017-05-04T00:00:31.277Z,7.79
2017-05-04T00:01:11.686Z,7.83
2017-05-04T00:01:52.178Z,7.82
2017-05-04T00:02:32.577Z,7.9
2017-05-04T00:03:13.076Z,7.93
2017-05-04T00:03:53.500Z,7.86
2017-05-04T00:04:33.933Z,7.9
2017-05-04T00:05:14.405Z,7.85
2017-05-04T00:05:54.872Z,7.92
2017-05-04T00:06:35.324Z,7.98
2017-05-04T00:07:15.815Z,7.98
2017-05-04T00:07:56.215Z,7.93
2017-05-04T00:08:36.680Z,7.93
2017-05-04T00:09:17.168Z,7.89
2017-05-04T00:09:57.613Z,8
2017-05-04T00:10:38.056Z,7.95
2017-05-04T00:11:18.522Z,7.95
2017-05-04T00:11:58.928Z,7.87
2017-05-04T00:12:39.352Z,7.97
2017-05-04T00:14:37.083Z,7.95
2017-05-04T00:15:17.532Z,7.98
2017-05-04T00:15:58.010Z,7.97
2017-05-04T00:16:38.684Z,8.07
2017-05-04T00:17:19.734Z,8.08
2017-05-04T00:18:00.210Z,7.95
2017-05-04T00:19:52.783Z,7.97
2017-05-04T00:20:33.268Z,7.92
2017-05-04T00:21:13.763Z,7.9
2017-05-04T00:21:54.225Z,7.9
2017-05-04T00:22:34.693Z,7.89
2017-05-04T00:23:15.154Z,7.98
2017-05-04T00:23:55.634Z,8
2017-05-04T00:24:36.131Z,7.93
2017-05-04T00:26:28.686Z,7.93
2017-05-04T00:27:09.177Z,7.83
2017-05-04T00:27:49.971Z,7.86
2017-05-04T00:28:30.470Z,8.01
2017-05-04T00:29:10.964Z,7.97
2017-05-04T00:29:51.462Z,7.97
2017-05-04T00:30:32.470Z,8.02
2017-05-04T00:31:12.947Z,7.86
2017-05-04T00:31:53.429Z,7.9
2017-05-04T00:32:33.894Z,7.92
2017-05-04T00:33:14.384Z,8.1
2017-05-04T00:33:54.892Z,8.12
2017-05-04T00:34:35.368Z,8.11
2017-05-04T00:35:15.877Z,8.22
2017-05-04T00:35:56.347Z,8.33
2017-05-04T00:36:36.823Z,8.3
2017-05-04T00:37:17.299Z,8.41
2017-05-04T00:37:57.822Z,8.43
2017-05-04T00:38:38.301Z,8.5
2017-05-04T00:39:18.778Z,8.55
2017-05-04T00:39:59.275Z,8.59
2017-05-04T00:40:39.766Z,8.58
2017-05-04T00:41:20.297Z,8.58
2017-05-04T00:42:00.789Z,8.77
2017-05-04T00:42:41.275Z,8.76
2017-05-04T00:43:21.770Z,8.77
2017-05-04T00:44:02.263Z,8.76
2017-05-04T00:44:42.759Z,8.76
2017-05-04T00:45:23.234Z,8.86
2017-05-04T00:46:03.687Z,8.77
2017-05-04T00:46:44.132Z,8.89
2017-05-04T00:47:24.589Z,8.81
2017-05-04T00:48:05.077Z,8.89
2017-05-04T00:48:45.742Z,8.92
2017-05-04T00:49:26.194Z,8.96
2017-05-04T00:50:06.653Z,9.08
2017-05-04T00:50:47.098Z,8.99
2017-05-04T00:51:27.543Z,9.1
2017-05-04T00:52:07.971Z,9.02
2017-05-04T00:52:48.960Z,9.05
2017-05-04T00:53:29.398Z,9.05
2017-05-04T00:54:09.833Z,9.18
2017-05-04T00:54:50.277Z,9.13
2017-05-04T00:55:30.700Z,9.18
2017-05-04T00:56:11.133Z,9.13
2017-05-04T00:56:51.539Z,9.23
2017-05-04T00:57:31.995Z,9.21
2017-05-04T00:58:12.432Z,9.14
2017-05-04T00:58:52.957Z,9.13
2017-05-04T00:59:33.399Z,9.17
2017-05-04T01:00:13.845Z,9.05
2017-05-04T01:00:54.302Z,9.04
2017-05-04T01:03:06.992Z,9.21
2017-05-04T01:03:47.408Z,9.17
2017-05-04T01:04:27.897Z,9.2
2017-05-04T01:05:08.342Z,9.18
2017-05-04T01:05:48.816Z,9.32
2017-05-04T01:06:29.286Z,9.36
2017-05-04T01:07:10.358Z,9.26
2017-05-04T01:07:50.860Z,9.31
2017-05-04T01:08:31.965Z,9.28
2017-05-04T01:10:29.590Z,9.51
2017-05-04T01:11:10.060Z,9.53
2017-05-04T01:11:50.529Z,9.48
2017-05-04T01:12:31.022Z,9.51
2017-05-04T01:13:11.507Z,9.61
2017-05-04T01:13:52.046Z,9.6
2017-05-04T01:14:32.498Z,9.56
2017-05-04T01:15:12.963Z,9.6
2017-05-04T01:15:53.448Z,9.66
2017-05-04T01:16:33.950Z,9.68
2017-05-04T01:17:14.417Z,9.61
2017-05-04T01:17:54.892Z,9.75
2017-05-04T01:18:35.382Z,9.66
2017-05-04T01:19:15.877Z,9.74
2017-05-04T01:19:56.335Z,9.83
2017-05-04T01:20:36.824Z,9.71
2017-05-04T01:21:17.298Z,9.74
2017-05-04T01:21:57.776Z,9.75
2017-05-04T01:22:38.271Z,9.76
2017-05-04T01:23:18.727Z,9.79
2017-05-04T01:23:59.236Z,9.83
2017-05-04T01:24:39.660Z,9.79
2017-05-04T01:25:20.119Z,9.6
2017-05-04T01:26:57.461Z,9.51
2017-05-04T01:27:37.931Z,9.46
2017-05-04T01:28:18.412Z,9.42
2017-05-04T01:28:58.902Z,9.4
2017-05-04T01:29:39.479Z,9.38
2017-05-04T01:30:19.971Z,9.33
2017-05-04T01:31:00.465Z,9.31
2017-05-04T01:31:40.938Z,9.33
2017-05-04T01:32:21.428Z,9.46
2017-05-04T01:33:01.929Z,9.46
2017-05-04T01:33:42.401Z,9.35
2017-05-04T01:34:22.887Z,9.47
2017-05-04T01:35:03.375Z,9.29
2017-05-04T01:35:43.882Z,9.29
2017-05-04T01:36:24.362Z,9.38
2017-05-04T01:37:04.849Z,9.24
2017-05-04T01:37:45.348Z,9.23
2017-05-04T01:38:25.842Z,9.17
2017-05-04T01:40:23.468Z,9.2
2017-05-04T01:41:03.956Z,9.15
2017-05-04T01:43:01.905Z,9.11
2017-05-04T01:43:42.372Z,9.1
2017-05-04T01:44:22.884Z,8.89
2017-05-04T01:45:03.357Z,8.94
2017-05-04T01:45:43.929Z,8.99
2017-05-04T01:46:24.373Z,8.95
2017-05-04T01:47:04.858Z,8.91
2017-05-04T01:47:45.325Z,8.87
2017-05-04T01:48:25.824Z,8.74
2017-05-04T01:49:06.283Z,8.81
2017-05-04T01:50:43.614Z,8.74
2017-05-04T01:51:24.088Z,8.77
2017-05-04T01:52:04.582Z,8.77
2017-05-04T01:52:45.082Z,8.77
2017-05-04T01:53:25.578Z,8.81
2017-05-04T01:54:06.077Z,8.77
2017-05-04T01:54:46.559Z,8.77
2017-05-04T01:55:27.062Z,8.65
2017-05-04T01:56:07.552Z,8.74
2017-05-04T01:56:48.023Z,8.71
2017-05-04T01:57:28.496Z,8.79
2017-05-04T01:58:08.984Z,8.62
2017-05-04T01:58:49.447Z,8.58
2017-05-04T01:59:29.953Z,8.45
2017-05-04T02:00:10.411Z,8.55
2017-05-04T02:00:50.841Z,8.45
2017-05-04T02:01:31.328Z,8.58
2017-05-04T02:02:11.806Z,8.47
2017-05-04T02:02:52.285Z,8.52
2017-05-04T02:03:32.743Z,8.55
2017-05-04T02:04:13.234Z,8.47
2017-05-04T02:04:53.714Z,8.43
2017-05-04T02:05:34.197Z,8.4
2017-05-04T02:06:14.632Z,8.43
2017-05-04T02:06:55.071Z,8.43
2017-05-04T02:07:35.528Z,8.43
2017-05-04T02:08:15.952Z,8.48
2017-05-04T02:08:56.406Z,8.44
2017-05-04T02:09:36.859Z,8.48
2017-05-04T02:10:17.303Z,8.53
2017-05-04T02:10:57.792Z,8.47
2017-05-04T02:11:38.274Z,8.53
2017-05-04T02:12:18.775Z,8.44
2017-05-04T02:12:59.153Z,8.44
2017-05-04T02:13:39.570Z,8.44
2017-05-04T02:14:20.032Z,8.23
2017-05-04T02:15:01.420Z,8.16
2017-05-04T02:15:41.865Z,8.16
2017-05-04T02:16:22.376Z,8.16
2017-05-04T02:17:02.840Z,8.18
2017-05-04T02:17:43.286Z,8.1
2017-05-04T02:18:23.801Z,8.11
2017-05-04T02:19:04.235Z,8.18
2017-05-04T02:19:44.761Z,8.12
2017-05-04T02:20:25.165Z,8.1
2017-05-04T02:21:05.627Z,8.19
2017-05-04T02:21:46.036Z,8.26
2017-05-04T02:22:26.486Z,8.28
2017-05-04T02:23:06.929Z,8.26
2017-05-04T02:25:04.580Z,8.22
2017-05-04T02:25:45.071Z,8.38
2017-05-04T02:26:25.534Z,8.38
2017-05-04T02:27:06.010Z,8.34
2017-05-04T02:27:46.482Z,8.38
2017-05-04T02:28:26.953Z,8.4
2017-05-04T02:29:07.457Z,8.45
2017-05-04T02:29:48.635Z,8.4
2017-05-04T02:30:29.098Z,8.3
2017-05-04T02:31:09.555Z,8.37
2017-05-04T02:31:50.091Z,8.34
2017-05-04T02:32:30.572Z,8.23
2017-05-04T02:33:11.033Z,8.3
2017-05-04T02:33:51.520Z,8.22
2017-05-04T02:34:32.640Z,8.1
2017-05-04T02:35:13.122Z,8.11
2017-05-04T02:35:53.581Z,8.01
2017-05-04T02:36:34.073Z,8.11
2017-05-04T02:37:15.068Z,8.04
2017-05-04T02:37:56.421Z,8.1
2017-05-04T02:38:36.886Z,7.97
2017-05-04T02:39:18.232Z,7.95
2017-05-04T02:39:58.723Z,8.01
2017-05-04T02:40:39.223Z,7.98
2017-05-04T02:41:19.716Z,8.02
2017-05-04T02:42:00.202Z,8.1
2017-05-04T02:42:40.714Z,8.08
2017-05-04T02:43:21.392Z,8.11
2017-05-04T02:44:01.648Z,8.2
2017-05-04T02:44:42.149Z,8.2
2017-05-04T02:45:22.659Z,8.2
2017-05-04T02:46:03.115Z,8.18
2017-05-04T02:46:43.569Z,8.07
2017-05-04T02:47:24.048Z,8.1
2017-05-04T02:48:04.493Z,8.1
2017-05-04T02:48:44.947Z,8.19
2017-05-04T02:49:25.354Z,7.97
2017-05-04T02:50:05.811Z,7.87
2017-05-04T02:50:46.291Z,7.9
2017-05-04T02:51:26.737Z,7.77
2017-05-04T02:52:07.231Z,7.8
2017-05-04T02:52:47.701Z,7.77
2017-05-04T02:54:40.220Z,7.98
2017-05-04T02:55:20.724Z,7.95
2017-05-04T02:56:01.181Z,7.92
2017-05-04T02:56:41.655Z,7.92
2017-05-04T02:57:22.144Z,7.89
2017-05-04T02:58:02.644Z,7.77
2017-05-04T02:58:43.112Z,7.68
2017-05-04T03:00:20.451Z,7.75
2017-05-04T03:01:00.970Z,7.75
2017-05-04T03:01:41.479Z,7.79
2017-05-04T03:02:21.927Z,7.77
2017-05-04T03:03:02.440Z,7.8
2017-05-04T03:03:42.932Z,7.74
2017-05-04T03:04:23.404Z,7.61
2017-05-04T03:05:03.877Z,7.58
2017-05-04T03:05:44.424Z,7.72
2017-05-04T03:06:24.904Z,7.79
2017-05-04T03:07:05.464Z,7.72
2017-05-04T03:07:46.070Z,7.69
2017-05-04T03:08:26.559Z,7.8
2017-05-04T03:09:07.021Z,7.58
2017-05-04T03:09:47.499Z,7.6
2017-05-04T03:10:27.947Z,7.74
2017-05-04T03:11:08.412Z,7.64
2017-05-04T03:11:48.914Z,7.75
2017-05-04T03:12:29.371Z,7.58
2017-05-04T03:13:09.830Z,7.72
2017-05-04T03:13:50.289Z,7.71
2017-05-04T03:14:30.761Z,7.57
2017-05-04T03:15:11.205Z,7.71
2017-05-04T03:15:51.623Z,7.69
2017-05-04T03:16:32.074Z,7.71
2017-05-04T03:17:12.499Z,7.57
2017-05-04T03:17:52.966Z,7.63
2017-05-04T03:18:33.392Z,7.61
2017-05-04T03:19:13.846Z,7.45
2017-05-04T03:19:54.302Z,7.5
2017-05-04T03:20:34.733Z,7.52
2017-05-04T03:21:15.171Z,7.55
2017-05-04T03:21:55.635Z,7.64
2017-05-04T03:22:36.106Z,7.55
2017-05-04T03:23:16.573Z,7.64
2017-05-04T03:23:57.037Z,7.63
2017-05-04T03:24:37.518Z,7.55
2017-05-04T03:25:17.983Z,7.52
2017-05-04T03:25:58.439Z,7.45
2017-05-04T03:26:38.910Z,7.49
2017-05-04T03:27:19.354Z,7.52
2017-05-04T03:27:59.794Z,7.45
2017-05-04T03:28:40.238Z,7.49
2017-05-04T03:29:20.755Z,7.39
2017-05-04T03:30:01.191Z,7.48
2017-05-04T03:30:41.670Z,7.43
2017-05-04T03:32:18.998Z,7.48
2017-05-04T03:32:59.495Z,7.49
2017-05-04T03:33:39.964Z,7.43
2017-05-04T03:34:20.410Z,7.49
2017-05-04T03:35:00.990Z,7.45
2017-05-04T03:35:41.444Z,7.55
2017-05-04T03:36:21.942Z,7.52
2017-05-04T03:37:02.416Z,7.52
2017-05-04T03:37:42.929Z,7.5
2017-05-04T03:38:23.372Z,7.45
2017-05-04T03:39:03.838Z,7.49
2017-05-04T03:39:44.343Z,7.46
2017-05-04T03:40:24.852Z,7.5
2017-05-04T03:41:05.312Z,7.55
2017-05-04T03:41:45.795Z,7.46
2017-05-04T03:42:26.283Z,7.55
2017-05-04T03:43:06.764Z,7.45
2017-05-04T03:43:47.962Z,7.45
2017-05-04T03:44:28.410Z,7.45
2017-05-04T03:45:08.875Z,7.55
2017-05-04T03:45:49.374Z,7.43
2017-05-04T03:46:29.799Z,7.45
2017-05-04T03:47:10.260Z,7.45
2017-05-04T03:47:50.705Z,7.49
2017-05-04T03:48:31.158Z,7.55
2017-05-04T03:49:11.626Z,7.49
2017-05-04T03:49:52.086Z,7.49
2017-05-04T03:50:32.557Z,7.57
2017-05-04T03:51:13.002Z,7.58
2017-05-04T03:51:53.468Z,7.61
2017-05-04T03:52:33.917Z,7.64
2017-05-04T03:53:14.390Z,7.71
2017-05-04T03:53:54.836Z,7.74
2017-05-04T03:54:35.302Z,7.74
2017-05-04T03:55:16.570Z,7.74
2017-05-04T03:55:57.033Z,7.68
2017-05-04T03:56:37.492Z,7.74
2017-05-04T03:57:17.946Z,7.79
2017-05-04T03:57:58.396Z,7.79
2017-05-04T03:58:38.846Z,7.86
2017-05-04T03:59:19.329Z,8.01
2017-05-04T03:59:59.815Z,7.97
2017-05-04T04:00:40.265Z,7.95
2017-05-04T04:01:20.735Z,7.93
2017-05-04T04:02:01.197Z,7.93
2017-05-04T04:02:41.710Z,7.95
2017-05-04T04:03:22.175Z,7.97
2017-05-04T04:04:02.858Z,7.98
2017-05-04T04:04:43.449Z,7.93
2017-05-04T04:05:23.944Z,7.95
2017-05-04T04:06:04.377Z,7.87
2017-05-04T04:06:44.877Z,7.89
2017-05-04T04:07:25.321Z,7.85
2017-05-04T04:08:06.033Z,7.85
2017-05-04T04:08:46.485Z,7.87
2017-05-04T04:09:26.931Z,7.9
2017-05-04T04:10:07.409Z,7.95
2017-05-04T04:10:47.870Z,7.97
2017-05-04T04:11:28.335Z,8
2017-05-04T04:12:08.769Z,8.04
2017-05-04T04:12:49.247Z,8.07
2017-05-04T04:13:29.698Z,8
2017-05-04T04:14:10.156Z,8.01
2017-05-04T04:14:50.702Z,7.93
2017-05-04T04:15:31.126Z,7.97
2017-05-04T04:16:11.590Z,7.8
2017-05-04T04:16:52.056Z,7.74
2017-05-04T04:17:32.503Z,7.71
2017-05-04T04:18:12.953Z,7.75
2017-05-04T04:18:53.433Z,7.83
2017-05-04T04:19:33.885Z,7.77
2017-05-04T04:20:14.301Z,7.79
2017-05-04T04:20:54.730Z,7.58
2017-05-04T04:21:35.179Z,7.72
2017-05-04T04:22:15.621Z,7.49
2017-05-04T04:22:56.060Z,7.58
2017-05-04T04:23:36.537Z,7.67
2017-05-04T04:24:16.996Z,7.6
2017-05-04T04:24:57.429Z,7.49
2017-05-04T04:25:37.906Z,7.71
2017-05-04T04:26:18.358Z,7.74
2017-05-04T04:26:58.813Z,7.74
2017-05-04T04:27:39.222Z,7.83
2017-05-04T04:28:19.671Z,7.93
2017-05-04T04:29:00.110Z,7.97
2017-05-04T04:29:40.577Z,7.9
2017-05-04T04:30:21.118Z,7.89
2017-05-04T04:31:01.583Z,7.82
2017-05-04T04:31:42.104Z,7.89
2017-05-04T04:32:22.526Z,7.79
2017-05-04T04:33:02.954Z,7.74
2017-05-04T04:33:43.455Z,7.6
2017-05-04T04:34:23.904Z,7.53
2017-05-04T04:35:04.358Z,7.72
2017-05-04T04:35:44.794Z,7.63
2017-05-04T04:36:26.206Z,7.63
2017-05-04T04:37:06.651Z,7.52
2017-05-04T04:37:47.239Z,7.53
2017-05-04T04:38:27.628Z,7.42
2017-05-04T04:39:08.081Z,7.53
2017-05-04T04:39:48.538Z,7.49
2017-05-04T04:40:29.019Z,7.5
2017-05-04T04:41:09.476Z,7.48
2017-05-04T04:41:49.917Z,7.55
2017-05-04T04:42:30.351Z,7.58
2017-05-04T04:43:10.789Z,7.61
2017-05-04T04:43:51.236Z,7.74
2017-05-04T04:44:31.688Z,7.69
2017-05-04T04:45:12.148Z,7.75
2017-05-04T04:45:52.607Z,7.89
2017-05-04T04:46:33.072Z,7.93
2017-05-04T04:47:13.567Z,7.86
2017-05-04T04:47:54.014Z,7.93
2017-05-04T04:48:34.536Z,8.16
2017-05-04T04:49:14.977Z,8.1
2017-05-04T04:49:55.417Z,8.2
2017-05-04T04:50:36.401Z,8.23
2017-05-04T04:51:16.842Z,8.33
2017-05-04T04:51:57.292Z,8.41
2017-05-04T04:52:37.761Z,8.44
2017-05-04T04:53:18.214Z,8.45
2017-05-04T04:53:58.669Z,8.48
2017-05-04T04:54:39.131Z,8.48
2017-05-04T04:55:19.598Z,8.48
2017-05-04T04:56:00.047Z,8.44
2017-05-04T04:56:40.804Z,8.38
2017-05-04T04:57:21.290Z,8.22
2017-05-04T04:58:01.741Z,8.23
2017-05-04T04:58:42.226Z,8.36
2017-05-04T04:59:22.680Z,8.38
2017-05-04T05:01:00.048Z,8.12
2017-05-04T05:01:41.487Z,8.23
2017-05-04T05:02:22.014Z,8.22
2017-05-04T05:03:02.451Z,8.16
2017-05-04T05:03:42.903Z,8.16
2017-05-04T05:04:23.387Z,8.05
2017-05-04T05:05:03.841Z,8.16
2017-05-04T05:05:44.328Z,8.16
2017-05-04T05:06:24.833Z,8.22
2017-05-04T05:07:05.322Z,8.23
2017-05-04T05:07:45.873Z,8.29
2017-05-04T05:08:26.366Z,8.36
2017-05-04T05:09:06.879Z,8.4
2017-05-04T05:09:48.202Z,8.4
2017-05-04T05:12:01.000Z,8.68
2017-05-04T05:12:41.414Z,8.76
2017-05-04T05:13:21.910Z,8.86
2017-05-04T05:14:02.394Z,8.91
2017-05-04T05:16:15.960Z,8.91
2017-05-04T05:16:56.411Z,9.04
2017-05-04T05:17:36.909Z,9.14
2017-05-04T05:18:17.410Z,9.18
2017-05-04T05:18:57.890Z,9.32
2017-05-04T05:19:38.380Z,9.15
2017-05-04T05:20:18.885Z,9.2
2017-05-04T05:20:59.344Z,9.13
2017-05-04T05:21:39.801Z,9.18
2017-05-04T05:22:20.314Z,9.08
2017-05-04T05:24:07.808Z,9.23
2017-05-04T05:24:48.325Z,9.14
2017-05-04T05:25:28.835Z,9.32
2017-05-04T05:26:09.323Z,9.21
2017-05-04T05:26:49.816Z,9.39
2017-05-04T05:27:30.302Z,9.42
2017-05-04T05:28:10.773Z,9.54
2017-05-04T05:28:51.222Z,9.65
2017-05-04T05:29:31.692Z,9.57
2017-05-04T05:30:12.189Z,9.78
2017-05-04T05:30:52.697Z,9.93
2017-05-04T05:31:33.166Z,9.86
2017-05-04T05:32:13.635Z,9.83
2017-05-04T05:32:54.077Z,9.79
2017-05-04T05:33:34.559Z,9.71
2017-05-04T05:34:15.006Z,9.56
2017-05-04T05:36:02.462Z,9.5
2017-05-04T05:38:00.089Z,9.38
2017-05-04T05:38:40.495Z,9.32
2017-05-04T05:39:20.971Z,9.15
2017-05-04T05:40:01.450Z,9.05
2017-05-04T05:40:41.981Z,9.08
2017-05-04T05:41:22.494Z,9.21
2017-05-04T05:42:02.987Z,9.04
2017-05-04T05:42:43.441Z,8.96
2017-05-04T05:43:23.885Z,9.1
2017-05-04T05:44:04.362Z,8.92
2017-05-04T05:44:44.834Z,8.91
2017-05-04T05:45:25.300Z,8.89
2017-05-04T05:46:05.740Z,9.05
2017-05-04T05:46:46.194Z,8.95
2017-05-04T05:47:26.641Z,9.01
2017-05-04T05:48:07.101Z,9.08
2017-05-04T05:48:47.570Z,9.21
2017-05-04T05:49:28.220Z,9.32
2017-05-04T05:50:08.726Z,9.42
2017-05-04T05:50:50.063Z,9.43
2017-05-04T05:51:30.511Z,9.36
2017-05-04T05:52:10.966Z,9.46
2017-05-04T05:52:51.403Z,9.51
2017-05-04T05:53:31.894Z,9.47
2017-05-04T05:54:12.360Z,9.47
2017-05-04T05:54:52.850Z,9.4
2017-05-04T05:55:33.356Z,9.42
2017-05-04T05:56:13.816Z,9.69
2017-05-04T05:56:54.276Z,9.78
2017-05-04T05:57:34.924Z,9.94
2017-05-04T05:58:15.409Z,10.05
2017-05-04T05:58:55.866Z,9.94
2017-05-04T05:59:36.314Z,9.93
2017-05-04T06:00:16.776Z,10.11
2017-05-04T06:00:57.216Z,10.17
2017-05-04T06:01:37.652Z,10.14
2017-05-04T06:02:18.098Z,10.2
2017-05-04T06:04:30.817Z,10.05
2017-05-04T06:05:11.290Z,10.22
2017-05-04T06:05:51.757Z,10.23
2017-05-04T06:06:32.244Z,10.33
2017-05-04T06:07:12.665Z,10.26
2017-05-04T06:07:53.116Z,10.23
2017-05-04T06:08:33.550Z,10.3
2017-05-04T06:09:14.016Z,10.4
2017-05-04T06:09:54.484Z,10.27
2017-05-04T06:11:31.840Z,10.33
2017-05-04T06:12:12.316Z,10.22
2017-05-04T06:12:52.768Z,10.25
2017-05-04T06:13:33.263Z,10.23
2017-05-04T06:14:14.392Z,10.26
2017-05-04T06:14:55.039Z,10.23
2017-05-04T06:15:35.533Z,10.22
2017-05-04T06:16:15.986Z,10.15
2017-05-04T06:16:56.439Z,10.12
2017-05-04T06:18:54.080Z,10.51
2017-05-04T06:19:34.512Z,10.66
2017-05-04T06:20:15.015Z,10.82
2017-05-04T06:20:55.511Z,10.96
2017-05-04T06:21:36.036Z,11.1
2017-05-04T06:22:16.541Z,11.18
2017-05-04T06:22:57.019Z,11.39
2017-05-04T06:23:37.507Z,11.4
2017-05-04T06:24:17.967Z,11.55
2017-05-04T06:24:58.413Z,11.46
2017-05-04T06:25:38.831Z,11.36
2017-05-04T06:26:19.297Z,11.51
2017-05-04T06:26:59.729Z,11.6
2017-05-04T06:27:40.198Z,11.69
2017-05-04T06:28:20.659Z,11.76
2017-05-04T06:29:01.134Z,11.8
2017-05-04T06:29:41.570Z,11.9
2017-05-04T06:30:22.341Z,11.96
2017-05-04T06:31:03.412Z,11.96
2017-05-04T06:31:44.673Z,11.95
2017-05-04T06:32:25.766Z,12.12
2017-05-04T06:33:06.523Z,11.96
2017-05-04T06:33:47.329Z,11.58
2017-05-04T06:34:28.169Z,11.58
2017-05-04T06:35:09.066Z,11.64
2017-05-04T06:35:49.646Z,11.69
2017-05-04T06:36:30.561Z,11.57
2017-05-04T06:37:12.114Z,11.6
2017-05-04T06:37:52.817Z,11.58
2017-05-04T06:38:33.262Z,11.61
2017-05-04T06:39:13.683Z,11.58
2017-05-04T06:39:54.114Z,11.64
2017-05-04T06:40:34.570Z,11.72
2017-05-04T06:41:15.014Z,11.39
2017-05-04T06:41:55.757Z,11.32
2017-05-04T06:42:36.219Z,11.17
2017-05-04T06:43:16.678Z,11.19
2017-05-04T06:43:57.127Z,11.03
2017-05-04T06:44:37.600Z,11.1
2017-05-04T06:45:18.149Z,11.24
2017-05-04T06:45:58.602Z,11.36
2017-05-04T06:46:39.095Z,11.69
2017-05-04T06:47:19.534Z,11.9
2017-05-04T06:47:59.987Z,11.9
2017-05-04T06:48:40.555Z,12.02
2017-05-04T06:49:20.999Z,12.05
2017-05-04T06:50:01.440Z,12.1
2017-05-04T06:50:41.858Z,12.32
2017-05-04T06:52:19.208Z,12.77
2017-05-04T06:52:59.778Z,12.72
2017-05-04T06:53:40.382Z,12.47
2017-05-04T06:54:20.878Z,12.45
2017-05-04T06:55:01.448Z,12.29
2017-05-04T06:55:42.001Z,12.29
2017-05-04T06:56:22.577Z,11.78
2017-05-04T06:57:03.023Z,11.47
2017-05-04T06:57:43.529Z,11.17
2017-05-04T06:58:23.989Z,11.06
2017-05-04T06:59:04.417Z,11.17
2017-05-04T06:59:44.849Z,11.15
2017-05-04T07:00:25.284Z,11.15
2017-05-04T07:01:05.714Z,10.94
2017-05-04T07:01:46.147Z,11.11
2017-05-04T07:02:26.575Z,10.97
2017-05-04T07:03:07.041Z,11.17
2017-05-04T07:04:54.496Z,11.4
2017-05-04T07:05:34.967Z,11.6
2017-05-04T07:06:15.459Z,11.78
2017-05-04T07:06:55.999Z,11.96
2017-05-04T07:07:37.461Z,11.85
2017-05-04T07:09:14.921Z,12.13
2017-05-04T07:09:55.313Z,11.95
2017-05-04T07:10:35.795Z,11.88
2017-05-04T07:12:48.585Z,11.37
2017-05-04T07:13:28.913Z,11.42
2017-05-04T07:14:09.362Z,11.61
2017-05-04T07:14:49.838Z,11.78
2017-05-04T07:15:30.506Z,12.01
2017-05-04T07:16:10.932Z,12.04
2017-05-04T07:16:51.401Z,12.14
2017-05-04T07:17:31.825Z,12.17
2017-05-04T07:18:12.256Z,12.2
2017-05-04T07:18:52.661Z,12.37
2017-05-04T07:19:33.148Z,12.34
2017-05-04T07:20:13.554Z,12.5
2017-05-04T07:20:54.012Z,12.37
2017-05-04T07:21:35.330Z,12.39
2017-05-04T07:22:15.965Z,12.39
2017-05-04T07:23:53.426Z,12.2
2017-05-04T07:25:46.144Z,12.14
2017-05-04T07:26:26.836Z,12.29
2017-05-04T07:27:07.291Z,12.28
2017-05-04T07:27:47.749Z,12.41
2017-05-04T07:28:28.199Z,12.24
2017-05-04T07:29:08.691Z,12.27
2017-05-04T07:31:21.459Z,12.17
2017-05-04T07:32:02.171Z,12.24
2017-05-04T07:32:42.619Z,12.32
2017-05-04T07:33:23.128Z,12.32
2017-05-04T07:34:03.685Z,12.42
2017-05-04T07:34:44.112Z,12.46
2017-05-04T07:35:24.605Z,12.64
2017-05-04T07:36:05.120Z,12.78
2017-05-04T07:36:45.519Z,12.9
2017-05-04T07:37:26.110Z,13.04
2017-05-04T07:38:07.681Z,13.1
2017-05-04T07:38:48.283Z,13.22
2017-05-04T07:39:30.809Z,13.2
2017-05-04T07:40:11.401Z,13.03
2017-05-04T07:40:51.998Z,12.72
2017-05-04T07:41:35.769Z,12.57
2017-05-04T07:42:18.047Z,12.32
2017-05-04T07:42:58.660Z,12.34
2017-05-04T07:43:39.133Z,12.37
2017-05-04T07:44:19.696Z,12.39
2017-05-04T07:45:00.385Z,12.39
2017-05-04T07:45:41.119Z,12.42
2017-05-04T07:46:21.591Z,12.45
2017-05-04T07:47:02.135Z,12.37
2017-05-04T07:47:42.620Z,12.45
2017-05-04T07:48:23.057Z,12.52
2017-05-04T07:49:03.559Z,12.5
2017-05-04T07:49:43.976Z,12.68
2017-05-04T07:50:24.438Z,12.7
2017-05-04T07:51:04.891Z,12.75
2017-05-04T07:51:45.327Z,12.47
2017-05-04T07:53:58.090Z,12.75
2017-05-04T07:54:39.614Z,12.82
2017-05-04T07:55:20.113Z,12.87
2017-05-04T07:57:32.836Z,12.93
2017-05-04T07:58:13.747Z,12.62
2017-05-04T07:58:54.414Z,12.56
2017-05-04T07:59:35.014Z,12.71
2017-05-04T08:00:15.912Z,12.67
2017-05-04T08:00:56.503Z,12.74
2017-05-04T08:01:37.000Z,12.83
2017-05-04T08:02:17.495Z,12.93
2017-05-04T08:02:58.263Z,13.08
2017-05-04T08:03:39.299Z,13.05
2017-05-04T08:04:20.323Z,13.05
2017-05-04T08:05:01.171Z,13.26
2017-05-04T08:05:41.692Z,13.28
2017-05-04T08:06:22.314Z,13.33
2017-05-04T08:07:02.795Z,13.15
2017-05-04T08:07:43.526Z,13.28
2017-05-04T08:08:24.228Z,13.28
2017-05-04T08:09:04.699Z,13.46
2017-05-04T08:09:45.207Z,13.52
2017-05-04T08:10:25.666Z,13.55
2017-05-04T08:12:03.073Z,13.71
2017-05-04T08:12:43.670Z,13.77
2017-05-04T08:13:24.108Z,13.85
2017-05-04T08:14:04.595Z,13.64
2017-05-04T08:14:45.818Z,13.71
2017-05-04T08:15:26.264Z,13.79
2017-05-04T08:16:07.025Z,13.71
2017-05-04T08:16:47.556Z,13.66
2017-05-04T08:17:27.951Z,13.67
2017-05-04T08:18:08.568Z,13.78
2017-05-04T08:18:49.111Z,13.75
2017-05-04T08:19:29.645Z,13.79
2017-05-04T08:21:07.094Z,13.77
2017-05-04T08:21:47.538Z,13.69
2017-05-04T08:22:27.972Z,13.69
2017-05-04T08:23:08.472Z,13.44
2017-05-04T08:23:48.886Z,13.64
2017-05-04T08:24:29.335Z,13.79
2017-05-04T08:25:09.798Z,13.66
2017-05-04T08:25:50.434Z,13.36
2017-05-04T08:26:30.835Z,12.92
2017-05-04T08:27:11.462Z,12.72
2017-05-04T08:27:52.209Z,12.6
2017-05-04T08:28:32.863Z,12.49
2017-05-04T08:29:13.393Z,12.27
2017-05-04T08:29:53.912Z,12.32
2017-05-04T08:30:34.335Z,12.47
2017-05-04T08:31:14.935Z,12.54
2017-05-04T08:31:55.547Z,12.68
2017-05-04T08:32:36.259Z,12.77
2017-05-04T08:33:16.655Z,12.79
2017-05-04T08:33:57.144Z,12.97
2017-05-04T08:34:37.623Z,13.14
2017-05-04T08:35:18.163Z,13.08
2017-05-04T08:35:58.609Z,13.05
2017-05-04T08:36:39.265Z,12.9
2017-05-04T08:37:19.871Z,13.05
2017-05-04T08:38:00.683Z,13.2
2017-05-04T08:38:41.580Z,13.52
2017-05-04T08:39:22.213Z,13.54
2017-05-04T08:40:02.947Z,13.62
2017-05-04T08:40:43.813Z,13.52
2017-05-04T08:41:24.348Z,13.39
2017-05-04T08:42:05.356Z,13.51
2017-05-04T08:42:46.060Z,13.41
2017-05-04T08:43:26.750Z,13.55
2017-05-04T08:44:07.383Z,13.88
2017-05-04T08:44:47.942Z,14.15
2017-05-04T08:45:28.804Z,14.45
2017-05-04T08:46:09.345Z,14.68
2017-05-04T08:46:49.884Z,14.62
2017-05-04T08:47:30.653Z,14.77
2017-05-04T08:48:11.208Z,14.96
2017-05-04T08:48:52.002Z,15.07
2017-05-04T08:49:32.568Z,14.96
2017-05-04T08:50:13.187Z,14.33
2017-05-04T08:50:53.786Z,14.25
2017-05-04T08:51:34.326Z,13.62
2017-05-04T08:52:14.880Z,13.45
2017-05-04T08:53:52.274Z,13.67
2017-05-04T08:54:32.833Z,14
2017-05-04T08:55:13.501Z,14.21
2017-05-04T08:55:54.406Z,14.45
2017-05-04T08:56:35.264Z,14.64
2017-05-04T08:57:15.872Z,14.43
2017-05-04T08:57:56.425Z,14.03
2017-05-04T08:58:37.153Z,13.91
2017-05-04T08:59:17.761Z,13.88
2017-05-04T08:59:58.387Z,13.89
2017-05-04T09:00:38.911Z,14.18
2017-05-04T09:01:19.706Z,14.17
2017-05-04T09:02:00.328Z,13.91
2017-05-04T09:02:40.920Z,13.87
2017-05-04T09:03:21.355Z,14.03
2017-05-04T09:04:01.980Z,14.12
2017-05-04T09:04:42.584Z,14.45
2017-05-04T09:05:23.120Z,14.57
2017-05-04T09:06:03.555Z,14.72
2017-05-04T09:06:44.056Z,14.46
2017-05-04T09:07:24.508Z,14.2
2017-05-04T09:08:05.153Z,13.99
2017-05-04T09:08:45.615Z,13.91
2017-05-04T09:09:27.342Z,14.21
2017-05-04T09:10:07.803Z,14.14
2017-05-04T09:10:48.659Z,14.37
2017-05-04T09:11:29.212Z,14.73
2017-05-04T09:12:09.826Z,14.96
2017-05-04T09:12:50.342Z,15.28
2017-05-04T09:13:30.788Z,15.6
2017-05-04T09:14:17.730Z,15.54
2017-05-04T09:14:58.251Z,15.35
2017-05-04T09:15:38.772Z,15.34
2017-05-04T09:16:19.206Z,15.44
2017-05-04T09:17:00.626Z,15.62
2017-05-04T09:17:41.661Z,15.56
2017-05-04T09:18:22.218Z,15.94
2017-05-04T09:19:03.031Z,16.08
2017-05-04T09:20:50.578Z,16.24
2017-05-04T09:21:31.077Z,16.5
2017-05-04T09:22:11.608Z,16.85
2017-05-04T09:22:52.058Z,16.89
2017-05-04T09:23:32.704Z,17.06
2017-05-04T09:24:13.333Z,16.88
2017-05-04T09:24:54.101Z,16.57
2017-05-04T09:25:34.568Z,16.93
2017-05-04T09:26:15.222Z,17.26
2017-05-04T09:26:55.857Z,17.03
2017-05-04T09:27:36.421Z,16.12
2017-05-04T09:28:16.909Z,15.62
2017-05-04T09:28:57.422Z,15.46
2017-05-04T09:29:37.971Z,15.28
2017-05-04T09:30:18.412Z,15.35
2017-05-04T09:30:58.910Z,15.54
2017-05-04T09:31:39.579Z,15.71
2017-05-04T09:32:20.126Z,15.89
2017-05-04T09:33:00.698Z,15.93
2017-05-04T09:33:41.268Z,15.82
2017-05-04T09:34:21.852Z,15.47
2017-05-04T09:35:02.519Z,15.46
2017-05-04T09:35:43.166Z,15.07
2017-05-04T09:36:23.752Z,14.8
2017-05-04T09:37:04.294Z,14.29